sensor_id;sensor_type;location;lat;lon;timestamp;pressure;altitude;pressure_sealevel;temperature;humidity
73240;BME280;61452;40.054;4.110;2022-09-24T00:00:32;101590.59;;;25.88;66.44
73240;BME280;61452;40.054;4.110;2022-09-24T00:05:39;101606.72;;;25.88;66.62
73240;BME280;61452;40.054;4.110;2022-09-24T00:10:42;101591.44;;;25.88;66.30
73240;BME280;61452;40.054;4.110;2022-09-24T00:15:47;101578.16;;;25.87;66.34
73240;BME280;61452;40.054;4.110;2022-09-24T00:20:49;101566.41;;;25.88;66.26
73240;BME280;61452;40.054;4.110;2022-09-24T00:25:52;101553.13;;;25.86;66.54
73240;BME280;61452;40.054;4.110;2022-09-24T00:31:12;101532.22;;;25.80;66.45
73240;BME280;61452;40.054;4.110;2022-09-24T00:36:14;101537.84;;;25.87;66.31
73240;BME280;61452;40.054;4.110;2022-09-24T00:41:21;101542.38;;;25.86;66.26
73240;BME280;61452;40.054;4.110;2022-09-24T00:46:56;101546.91;;;25.86;66.36
73240;BME280;61452;40.054;4.110;2022-09-24T00:51:58;101555.00;;;25.86;66.47
73240;BME280;61452;40.054;4.110;2022-09-24T00:57:00;101559.50;;;25.85;66.35
73240;BME280;61452;40.054;4.110;2022-09-24T01:02:03;101558.66;;;25.85;66.45
73240;BME280;61452;40.054;4.110;2022-09-24T01:07:05;101546.06;;;25.85;66.34
73240;BME280;61452;40.054;4.110;2022-09-24T01:12:24;101545.22;;;25.85;66.46
73240;BME280;61452;40.054;4.110;2022-09-24T01:33:35;101514.81;;;25.84;66.52
73240;BME280;61452;40.054;4.110;2022-09-24T01:38:41;101504.06;;;25.84;66.78
73240;BME280;61452;40.054;4.110;2022-09-24T01:43:45;101496.00;;;25.84;66.68
73240;BME280;61452;40.054;4.110;2022-09-24T01:48:49;101483.41;;;25.85;66.75
73240;BME280;61452;40.054;4.110;2022-09-24T01:54:36;101478.16;;;25.83;66.26
73240;BME280;61452;40.054;4.110;2022-09-24T02:04:57;101457.50;;;25.84;66.46
73240;BME280;61452;40.054;4.110;2022-09-24T02:10:01;101457.50;;;25.84;66.48
73240;BME280;61452;40.054;4.110;2022-09-24T02:15:10;101460.19;;;25.84;66.49
73240;BME280;61452;40.054;4.110;2022-09-24T02:20:20;101461.19;;;25.83;66.71
73240;BME280;61452;40.054;4.110;2022-09-24T02:25:50;101448.75;;;25.82;66.71
73240;BME280;61452;40.054;4.110;2022-09-24T02:31:10;101431.78;;;25.81;66.54
73240;BME280;61452;40.054;4.110;2022-09-24T02:36:14;101428.25;;;25.81;66.78
73240;BME280;61452;40.054;4.110;2022-09-24T02:41:17;101418.34;;;25.81;66.66
73240;BME280;61452;40.054;4.110;2022-09-24T02:46:20;101410.28;;;25.81;66.75
73240;BME280;61452;40.054;4.110;2022-09-24T02:51:22;101397.03;;;25.80;66.65
73240;BME280;61452;40.054;4.110;2022-09-24T02:56:24;101401.38;;;25.81;66.72
73240;BME280;61452;40.054;4.110;2022-09-24T03:01:27;101399.72;;;25.80;66.68
73240;BME280;61452;40.054;4.110;2022-09-24T03:06:29;101405.09;;;25.80;66.75
73240;BME280;61452;40.054;4.110;2022-09-24T03:11:31;101405.09;;;25.80;66.59
73240;BME280;61452;40.054;4.110;2022-09-24T03:16:33;101396.00;;;25.81;66.88
73240;BME280;61452;40.054;4.110;2022-09-24T03:21:36;101371.97;;;25.79;66.74
73240;BME280;61452;40.054;4.110;2022-09-24T03:26:38;101371.13;;;25.78;66.67
73240;BME280;61452;40.054;4.110;2022-09-24T03:31:40;101377.50;;;25.77;66.70
73240;BME280;61452;40.054;4.110;2022-09-24T03:36:42;101370.44;;;25.76;66.78
73240;BME280;61452;40.054;4.110;2022-09-24T03:41:44;101353.47;;;25.76;66.59
73240;BME280;61452;40.054;4.110;2022-09-24T03:46:47;101345.41;;;25.76;66.80
73240;BME280;61452;40.054;4.110;2022-09-24T03:51:50;101327.94;;;25.72;66.83
73240;BME280;61452;40.054;4.110;2022-09-24T03:56:53;101328.59;;;25.74;66.87
73240;BME280;61452;40.054;4.110;2022-09-24T04:01:55;101332.97;;;25.75;66.89
73240;BME280;61452;40.054;4.110;2022-09-24T04:06:57;101319.53;;;25.75;66.80
73240;BME280;61452;40.054;4.110;2022-09-24T04:11:59;101337.50;;;25.74;66.89
73240;BME280;61452;40.054;4.110;2022-09-24T04:17:02;101340.19;;;25.74;66.79
73240;BME280;61452;40.054;4.110;2022-09-24T04:22:04;101350.09;;;25.74;66.76
73240;BME280;61452;40.054;4.110;2022-09-24T04:27:06;101350.94;;;25.74;66.77
73240;BME280;61452;40.054;4.110;2022-09-24T04:32:08;101365.41;;;25.73;66.62
73240;BME280;61452;40.054;4.110;2022-09-24T04:37:11;101361.88;;;25.73;66.96
73240;BME280;61452;40.054;4.110;2022-09-24T04:42:16;101362.72;;;25.73;66.70
73240;BME280;61452;40.054;4.110;2022-09-24T04:47:19;101350.28;;;25.72;66.83
73240;BME280;61452;40.054;4.110;2022-09-24T04:52:21;101353.97;;;25.71;66.64
73240;BME280;61452;40.054;4.110;2022-09-24T04:57:30;101342.50;;;25.69;67.08
73240;BME280;61452;40.054;4.110;2022-09-24T05:02:37;101341.50;;;25.70;66.97
73240;BME280;61452;40.054;4.110;2022-09-24T05:07:40;101342.38;;;25.71;66.91
73240;BME280;61452;40.054;4.110;2022-09-24T05:12:42;101335.28;;;25.70;66.83
73240;BME280;61452;40.054;4.110;2022-09-24T05:17:45;101323.56;;;25.71;66.91
73240;BME280;61452;40.054;4.110;2022-09-24T05:22:48;101336.28;;;25.69;67.06
73240;BME280;61452;40.054;4.110;2022-09-24T05:27:52;101339.81;;;25.69;66.93
73240;BME280;61452;40.054;4.110;2022-09-24T05:32:55;101347.88;;;25.69;66.86
73240;BME280;61452;40.054;4.110;2022-09-24T05:37:57;101430.34;;;25.69;66.79
73240;BME280;61452;40.054;4.110;2022-09-24T05:43:03;101488.47;;;25.70;67.76
73240;BME280;61452;40.054;4.110;2022-09-24T05:48:05;101501.44;;;25.74;68.09
73240;BME280;61452;40.054;4.110;2022-09-24T05:53:09;101492.00;;;25.70;68.32
73240;BME280;61452;40.054;4.110;2022-09-24T05:58:12;101466.59;;;25.65;69.05
73240;BME280;61452;40.054;4.110;2022-09-24T06:03:16;101484.44;;;25.66;69.32
73240;BME280;61452;40.054;4.110;2022-09-24T06:08:19;101506.06;;;25.64;69.85
73240;BME280;61452;40.054;4.110;2022-09-24T06:13:21;101495.47;;;25.63;69.02
73240;BME280;61452;40.054;4.110;2022-09-24T06:18:23;101504.69;;;25.60;68.97
73240;BME280;61452;40.054;4.110;2022-09-24T06:23:25;101482.50;;;25.58;68.65
73240;BME280;61452;40.054;4.110;2022-09-24T06:28:27;101485.63;;;25.54;68.63
73240;BME280;61452;40.054;4.110;2022-09-24T06:33:30;101468.97;;;25.50;68.57
73240;BME280;61452;40.054;4.110;2022-09-24T06:38:33;101461.06;;;25.49;68.53
73240;BME280;61452;40.054;4.110;2022-09-24T06:43:36;101471.81;;;25.49;68.64
73240;BME280;61452;40.054;4.110;2022-09-24T06:48:38;101468.28;;;25.48;68.42
73240;BME280;61452;40.054;4.110;2022-09-24T06:53:40;101462.72;;;25.50;68.99
73240;BME280;61452;40.054;4.110;2022-09-24T06:58:42;101452.00;;;25.50;68.79
73240;BME280;61452;40.054;4.110;2022-09-24T07:03:44;101446.63;;;25.50;68.54
73240;BME280;61452;40.054;4.110;2022-09-24T07:08:50;101444.09;;;25.48;68.68
73240;BME280;61452;40.054;4.110;2022-09-24T07:13:52;101446.78;;;25.48;68.82
73240;BME280;61452;40.054;4.110;2022-09-24T07:18:54;101444.78;;;25.50;68.58
73240;BME280;61452;40.054;4.110;2022-09-24T07:23:56;101462.72;;;25.50;68.34
73240;BME280;61452;40.054;4.110;2022-09-24T07:28:59;101466.28;;;25.50;68.24
73240;BME280;61452;40.054;4.110;2022-09-24T07:34:01;101450.69;;;25.54;68.37
73240;BME280;61452;40.054;4.110;2022-09-24T07:39:03;101436.81;;;25.58;68.11
73240;BME280;61452;40.054;4.110;2022-09-24T07:44:06;101418.88;;;25.59;68.41
73240;BME280;61452;40.054;4.110;2022-09-24T07:49:09;101400.31;;;25.56;68.36
73240;BME280;61452;40.054;4.110;2022-09-24T07:54:11;101401.06;;;25.58;68.44
73240;BME280;61452;40.054;4.110;2022-09-24T07:59:17;101410.94;;;25.57;68.35
73240;BME280;61452;40.054;4.110;2022-09-24T08:04:21;101408.56;;;25.54;68.38
73240;BME280;61452;40.054;4.110;2022-09-24T08:09:23;101422.66;;;25.56;68.44
73240;BME280;61452;40.054;4.110;2022-09-24T08:14:25;101429.88;;;25.56;68.48
73240;BME280;61452;40.054;4.110;2022-09-24T08:19:27;101421.81;;;25.56;68.45
73240;BME280;61452;40.054;4.110;2022-09-24T08:24:31;101418.16;;;25.57;68.55
73240;BME280;61452;40.054;4.110;2022-09-24T08:29:34;101420.97;;;25.55;68.58
73240;BME280;61452;40.054;4.110;2022-09-24T08:34:36;101420.16;;;25.55;68.25
73240;BME280;61452;40.054;4.110;2022-09-24T08:39:41;101435.13;;;25.57;68.55
73240;BME280;61452;40.054;4.110;2022-09-24T08:44:45;101451.38;;;25.56;68.39
73240;BME280;61452;40.054;4.110;2022-09-24T09:00:31;101446.00;;;25.56;68.39
73240;BME280;61452;40.054;4.110;2022-09-24T09:10:53;101449.00;;;25.53;68.35
73240;BME280;61452;40.054;4.110;2022-09-24T09:16:11;101445.34;;;25.54;68.42
73240;BME280;61452;40.054;4.110;2022-09-24T09:21:30;101459.59;;;25.54;68.40
73240;BME280;61452;40.054;4.110;2022-09-24T09:26:35;101446.31;;;25.53;68.42
73240;BME280;61452;40.054;4.110;2022-09-24T09:37:32;101448.16;;;25.52;68.43
73240;BME280;61452;40.054;4.110;2022-09-24T09:42:38;101456.22;;;25.52;68.46
73240;BME280;61452;40.054;4.110;2022-09-24T09:47:49;101447.16;;;25.53;68.45
73240;BME280;61452;40.054;4.110;2022-09-24T09:52:51;101449.00;;;25.53;68.31
73240;BME280;61452;40.054;4.110;2022-09-24T09:58:08;101438.41;;;25.51;68.51
73240;BME280;61452;40.054;4.110;2022-09-24T10:03:32;101449.16;;;25.51;68.18
73240;BME280;61452;40.054;4.110;2022-09-24T10:08:35;101442.63;;;25.54;68.30
73240;BME280;61452;40.054;4.110;2022-09-24T10:13:37;101436.41;;;25.53;68.51
73240;BME280;61452;40.054;4.110;2022-09-24T10:18:45;101444.63;;;25.52;68.19
73240;BME280;61452;40.054;4.110;2022-09-24T10:23:49;101448.16;;;25.52;68.29
73240;BME280;61452;40.054;4.110;2022-09-24T10:28:52;101437.28;;;25.54;68.30
73240;BME280;61452;40.054;4.110;2022-09-24T10:34:24;101436.41;;;25.53;68.10
73240;BME280;61452;40.054;4.110;2022-09-24T10:39:30;101434.59;;;25.54;67.88
73240;BME280;61452;40.054;4.110;2022-09-24T10:44:36;101422.13;;;25.53;68.18
73240;BME280;61452;40.054;4.110;2022-09-24T10:50:09;101418.59;;;25.52;68.14
73240;BME280;61452;40.054;4.110;2022-09-24T11:00:23;101403.34;;;25.53;67.94
73240;BME280;61452;40.054;4.110;2022-09-24T11:05:44;101394.44;;;25.52;68.10
73240;BME280;61452;40.054;4.110;2022-09-24T11:10:48;101393.44;;;25.53;68.20
73240;BME280;61452;40.054;4.110;2022-09-24T11:16:14;101391.03;;;25.50;68.13
73240;BME280;61452;40.054;4.110;2022-09-24T11:48:52;101370.41;;;25.51;68.08
73240;BME280;61452;40.054;4.110;2022-09-24T12:00:04;101339.16;;;25.50;68.33
73240;BME280;61452;40.054;4.110;2022-09-24T12:05:24;101340.84;;;25.51;68.27
73240;BME280;61452;40.054;4.110;2022-09-24T12:10:37;101328.41;;;25.50;68.22
73240;BME280;61452;40.054;4.110;2022-09-24T12:16:05;101325.72;;;25.50;68.12
73240;BME280;61452;40.054;4.110;2022-09-24T12:21:11;101311.28;;;25.51;68.23
73240;BME280;61452;40.054;4.110;2022-09-24T12:26:15;101307.09;;;25.48;68.20
73240;BME280;61452;40.054;4.110;2022-09-24T12:31:25;101297.00;;;25.50;68.27
73240;BME280;61452;40.054;4.110;2022-09-24T12:37:00;101280.91;;;25.50;68.21
73240;BME280;61452;40.054;4.110;2022-09-24T12:42:07;101262.94;;;25.51;68.30
73240;BME280;61452;40.054;4.110;2022-09-24T12:47:16;101244.13;;;25.51;68.33
73240;BME280;61452;40.054;4.110;2022-09-24T12:52:26;101254.88;;;25.51;68.34
73240;BME280;61452;40.054;4.110;2022-09-24T12:57:39;101255.88;;;25.50;68.61
73240;BME280;61452;40.054;4.110;2022-09-24T13:02:45;101248.50;;;25.52;68.18
73240;BME280;61452;40.054;4.110;2022-09-24T13:07:59;101243.28;;;25.50;68.34
73240;BME280;61452;40.054;4.110;2022-09-24T13:13:15;101240.59;;;25.50;68.50
73240;BME280;61452;40.054;4.110;2022-09-24T13:18:23;101245.81;;;25.52;68.42
73240;BME280;61452;40.054;4.110;2022-09-24T13:28:36;101253.03;;;25.51;68.51
73240;BME280;61452;40.054;4.110;2022-09-24T13:39:32;101238.75;;;25.51;68.54
73240;BME280;61452;40.054;4.110;2022-09-24T13:44:42;101235.22;;;25.50;68.50
73240;BME280;61452;40.054;4.110;2022-09-24T13:49:46;101241.44;;;25.51;68.68
73240;BME280;61452;40.054;4.110;2022-09-24T13:54:53;101235.06;;;25.52;68.48
73240;BME280;61452;40.054;4.110;2022-09-24T14:00:13;101224.34;;;25.52;68.40
73240;BME280;61452;40.054;4.110;2022-09-24T14:05:21;101215.28;;;25.53;68.56
73240;BME280;61452;40.054;4.110;2022-09-24T14:10:24;101218.81;;;25.53;68.63
73240;BME280;61452;40.054;4.110;2022-09-24T14:15:26;101197.47;;;25.52;68.70
73240;BME280;61452;40.054;4.110;2022-09-24T14:20:32;101193.09;;;25.51;68.67
73240;BME280;61452;40.054;4.110;2022-09-24T14:25:36;101183.03;;;25.53;68.56
73240;BME280;61452;40.054;4.110;2022-09-24T14:30:48;101191.94;;;25.53;68.58
73240;BME280;61452;40.054;4.110;2022-09-24T14:35:54;101187.56;;;25.52;68.73
73240;BME280;61452;40.054;4.110;2022-09-24T14:41:12;101203.69;;;25.52;68.70
73240;BME280;61452;40.054;4.110;2022-09-24T14:46:17;101188.41;;;25.53;68.67
73240;BME280;61452;40.054;4.110;2022-09-24T14:51:27;101191.94;;;25.53;68.53
73240;BME280;61452;40.054;4.110;2022-09-24T14:56:32;101183.88;;;25.53;68.94
73240;BME280;61452;40.054;4.110;2022-09-24T15:01:35;101168.59;;;25.54;68.82
73240;BME280;61452;40.054;4.110;2022-09-24T15:06:44;101158.84;;;25.53;68.96
73240;BME280;61452;40.054;4.110;2022-09-24T15:11:47;101163.22;;;25.54;68.81
73240;BME280;61452;40.054;4.110;2022-09-24T15:16:49;101161.38;;;25.54;68.85
73240;BME280;61452;40.054;4.110;2022-09-24T15:21:55;101165.72;;;25.55;68.96
73240;BME280;61452;40.054;4.110;2022-09-24T15:32:13;101168.59;;;25.54;68.75
73240;BME280;61452;40.054;4.110;2022-09-24T15:37:20;101155.81;;;25.56;68.95
73240;BME280;61452;40.054;4.110;2022-09-24T15:42:26;101160.34;;;25.55;68.60
73240;BME280;61452;40.054;4.110;2022-09-24T15:47:29;101160.34;;;25.55;68.89
73240;BME280;61452;40.054;4.110;2022-09-24T15:52:31;101145.09;;;25.56;68.62
73240;BME280;61452;40.054;4.110;2022-09-24T15:57:34;101088.84;;;25.54;68.97
73240;BME280;61452;40.054;4.110;2022-09-24T16:02:36;101129.69;;;25.58;68.95
73240;BME280;61452;40.054;4.110;2022-09-24T16:07:38;101193.31;;;25.57;68.94
73240;BME280;61452;40.054;4.110;2022-09-24T16:12:41;101138.75;;;25.57;68.85
73240;BME280;61452;40.054;4.110;2022-09-24T16:17:43;101134.22;;;25.57;68.91
73240;BME280;61452;40.054;4.110;2022-09-24T16:22:45;101127.00;;;25.58;69.01
73240;BME280;61452;40.054;4.110;2022-09-24T16:27:47;101088.53;;;25.57;68.84
73240;BME280;61452;40.054;4.110;2022-09-24T16:32:50;101101.97;;;25.57;68.79
73240;BME280;61452;40.054;4.110;2022-09-24T16:37:52;101109.19;;;25.57;68.88
73240;BME280;61452;40.054;4.110;2022-09-24T16:42:54;101157.66;;;25.55;69.15
73240;BME280;61452;40.054;4.110;2022-09-24T16:47:57;101166.44;;;25.57;69.01
73240;BME280;61452;40.054;4.110;2022-09-24T16:52:59;101180.72;;;25.58;69.35
73240;BME280;61452;40.054;4.110;2022-09-24T16:58:01;101202.53;;;25.55;68.99
73240;BME280;61452;40.054;4.110;2022-09-24T17:03:03;101198.69;;;25.57;69.04
73240;BME280;61452;40.054;4.110;2022-09-24T17:08:06;101239.00;;;25.57;69.29
73240;BME280;61452;40.054;4.110;2022-09-24T17:13:08;101240.84;;;25.57;69.13
73240;BME280;61452;40.054;4.110;2022-09-24T17:18:10;101238.16;;;25.57;69.14
73240;BME280;61452;40.054;4.110;2022-09-24T17:23:12;101239.00;;;25.57;69.05
73240;BME280;61452;40.054;4.110;2022-09-24T17:28:14;101247.19;;;25.56;69.39
73240;BME280;61452;40.054;4.110;2022-09-24T17:33:16;101265.97;;;25.56;69.34
73240;BME280;61452;40.054;4.110;2022-09-24T17:38:38;101254.38;;;25.55;69.28
73240;BME280;61452;40.054;4.110;2022-09-24T17:43:40;101174.97;;;25.53;69.42
73240;BME280;61452;40.054;4.110;2022-09-24T17:48:44;101178.34;;;25.55;69.38
73240;BME280;61452;40.054;4.110;2022-09-24T17:53:47;101190.09;;;25.54;69.58
73240;BME280;61452;40.054;4.110;2022-09-24T17:58:52;101193.63;;;25.54;69.22
73240;BME280;61452;40.054;4.110;2022-09-24T18:03:56;101200.84;;;25.54;69.27
73240;BME280;61452;40.054;4.110;2022-09-24T18:09:00;101203.53;;;25.54;69.23
73240;BME280;61452;40.054;4.110;2022-09-24T18:14:02;101221.50;;;25.53;69.45
73240;BME280;61452;40.054;4.110;2022-09-24T18:19:05;101227.84;;;25.52;69.42
73240;BME280;61452;40.054;4.110;2022-09-24T18:24:08;101234.06;;;25.53;69.50
73240;BME280;61452;40.054;4.110;2022-09-24T18:29:13;101219.81;;;25.52;69.67
73240;BME280;61452;40.054;4.110;2022-09-24T18:34:16;101225.19;;;25.52;69.36
73240;BME280;61452;40.054;4.110;2022-09-24T18:39:18;101222.50;;;25.52;69.41
73240;BME280;61452;40.054;4.110;2022-09-24T18:44:26;101223.47;;;25.51;69.49
73240;BME280;61452;40.054;4.110;2022-09-24T18:49:28;101236.06;;;25.51;69.60
73240;BME280;61452;40.054;4.110;2022-09-24T18:54:30;101237.75;;;25.52;69.62
73240;BME280;61452;40.054;4.110;2022-09-24T18:59:32;101233.38;;;25.51;69.51
73240;BME280;61452;40.054;4.110;2022-09-24T19:04:45;101250.34;;;25.51;69.25
73240;BME280;61452;40.054;4.110;2022-09-24T19:09:47;101247.66;;;25.51;69.43
73240;BME280;61452;40.054;4.110;2022-09-24T19:14:49;101270.16;;;25.50;69.43
73240;BME280;61452;40.054;4.110;2022-09-24T19:19:54;101274.69;;;25.50;69.58
73240;BME280;61452;40.054;4.110;2022-09-24T19:24:56;101280.06;;;25.50;69.49
73240;BME280;61452;40.054;4.110;2022-09-24T19:29:59;101283.78;;;25.49;69.37
73240;BME280;61452;40.054;4.110;2022-09-24T19:35:01;101306.91;;;25.50;69.45
73240;BME280;61452;40.054;4.110;2022-09-24T19:40:05;101297.19;;;25.49;69.40
73240;BME280;61452;40.054;4.110;2022-09-24T19:45:08;101270.34;;;25.49;69.54
73240;BME280;61452;40.054;4.110;2022-09-24T19:50:11;101273.16;;;25.47;69.49
73240;BME280;61452;40.054;4.110;2022-09-24T19:55:18;101267.81;;;25.47;69.37
73240;BME280;61452;40.054;4.110;2022-09-24T20:00:25;101236.41;;;25.48;69.42
73240;BME280;61452;40.054;4.110;2022-09-24T20:05:28;101195.28;;;25.47;69.16
73240;BME280;61452;40.054;4.110;2022-09-24T20:10:30;101200.78;;;25.46;69.45
73240;BME280;61452;40.054;4.110;2022-09-24T20:15:32;101221.44;;;25.45;69.52
73240;BME280;61452;40.054;4.110;2022-09-24T20:20:34;101211.34;;;25.39;69.54
73240;BME280;61452;40.054;4.110;2022-09-24T20:25:37;101219.75;;;25.44;69.59
73240;BME280;61452;40.054;4.110;2022-09-24T20:30:57;101197.41;;;25.44;69.31
73240;BME280;61452;40.054;4.110;2022-09-24T20:36:00;101214.38;;;25.44;69.42
73240;BME280;61452;40.054;4.110;2022-09-24T20:41:07;101212.53;;;25.45;69.68
73240;BME280;61452;40.054;4.110;2022-09-24T20:46:12;101209.19;;;25.43;69.63
73240;BME280;61452;40.054;4.110;2022-09-24T20:51:18;101204.63;;;25.43;69.60
73240;BME280;61452;40.054;4.110;2022-09-24T20:56:21;101199.44;;;25.42;69.53
73240;BME280;61452;40.054;4.110;2022-09-24T21:01:23;101193.22;;;25.41;69.57
73240;BME280;61452;40.054;4.110;2022-09-24T21:06:25;101182.47;;;25.41;69.74
73240;BME280;61452;40.054;4.110;2022-09-24T21:11:28;101182.34;;;25.43;69.46
73240;BME280;61452;40.054;4.110;2022-09-24T21:16:32;101184.31;;;25.41;69.49
73240;BME280;61452;40.054;4.110;2022-09-24T21:21:35;101180.78;;;25.40;69.46
73240;BME280;61452;40.054;4.110;2022-09-24T21:26:40;101171.75;;;25.41;69.54
73240;BME280;61452;40.054;4.110;2022-09-24T21:31:43;101179.94;;;25.39;69.68
73240;BME280;61452;40.054;4.110;2022-09-24T21:36:47;101175.72;;;25.37;69.59
73240;BME280;61452;40.054;4.110;2022-09-24T21:41:49;101174.72;;;25.38;69.45
73240;BME280;61452;40.054;4.110;2022-09-24T21:46:53;101163.84;;;25.39;69.40
73240;BME280;61452;40.054;4.110;2022-09-24T21:51:55;101143.34;;;25.38;69.53
73240;BME280;61452;40.054;4.110;2022-09-24T21:56:58;101158.63;;;25.38;69.64
73240;BME280;61452;40.054;4.110;2022-09-24T22:02:01;101162.31;;;25.37;69.29
73240;BME280;61452;40.054;4.110;2022-09-24T22:07:04;101174.91;;;25.36;69.70
73240;BME280;61452;40.054;4.110;2022-09-24T22:12:06;101186.31;;;25.38;69.61
73240;BME280;61452;40.054;4.110;2022-09-24T22:17:09;101165.81;;;25.37;69.34
73240;BME280;61452;40.054;4.110;2022-09-24T22:22:11;101148.06;;;25.36;69.41
73240;BME280;61452;40.054;4.110;2022-09-24T22:27:14;101158.81;;;25.36;69.53
73240;BME280;61452;40.054;4.110;2022-09-24T22:32:16;101167.84;;;25.35;69.45
73240;BME280;61452;40.054;4.110;2022-09-24T22:37:18;101142.69;;;25.36;69.64
73240;BME280;61452;40.054;4.110;2022-09-24T22:42:20;101141.00;;;25.35;69.37
73240;BME280;61452;40.054;4.110;2022-09-24T22:47:22;101130.41;;;25.34;69.35
73240;BME280;61452;40.054;4.110;2022-09-24T22:52:24;101136.47;;;25.36;69.38
73240;BME280;61452;40.054;4.110;2022-09-24T22:57:26;101149.06;;;25.35;69.23
73240;BME280;61452;40.054;4.110;2022-09-24T23:02:28;101147.38;;;25.34;69.73
73240;BME280;61452;40.054;4.110;2022-09-24T23:07:30;101157.25;;;25.34;69.51
73240;BME280;61452;40.054;4.110;2022-09-24T23:12:33;101149.22;;;25.34;69.42
73240;BME280;61452;40.054;4.110;2022-09-24T23:17:36;101150.19;;;25.33;69.40
73240;BME280;61452;40.054;4.110;2022-09-24T23:22:38;101166.31;;;25.33;69.58
73240;BME280;61452;40.054;4.110;2022-09-24T23:27:40;101165.47;;;25.32;69.45
73240;BME280;61452;40.054;4.110;2022-09-24T23:32:42;101118.97;;;25.32;69.56
73240;BME280;61452;40.054;4.110;2022-09-24T23:37:44;101149.38;;;25.32;69.45
73240;BME280;61452;40.054;4.110;2022-09-24T23:42:46;101170.00;;;25.32;69.44
73240;BME280;61452;40.054;4.110;2022-09-24T23:47:50;101126.88;;;25.33;69.56
73240;BME280;61452;40.054;4.110;2022-09-24T23:52:52;101087.59;;;25.32;69.53
73240;BME280;61452;40.054;4.110;2022-09-24T23:57:54;101086.75;;;25.32;69.52
